sensor_id;sensor_type;location;lat;lon;timestamp;temperature;humidity
23873;DHT22;42884;50.718;4.630;2023-06-24T00:02:03;19.10;99.90
23873;DHT22;42884;50.718;4.630;2023-06-24T00:04:29;19.00;99.90
23873;DHT22;42884;50.718;4.630;2023-06-24T00:06:55;19.00;99.90
23873;DHT22;42884;50.718;4.630;2023-06-24T00:09:24;19.00;99.90
23873;DHT22;42884;50.718;4.630;2023-06-24T00:11:50;18.90;99.90
23873;DHT22;42884;50.718;4.630;2023-06-24T00:14:16;18.80;99.90
23873;DHT22;42884;50.718;4.630;2023-06-24T00:16:42;18.80;99.90
23873;DHT22;42884;50.718;4.630;2023-06-24T00:19:07;18.80;99.90
23873;DHT22;42884;50.718;4.630;2023-06-24T00:21:33;18.80;99.90
23873;DHT22;42884;50.718;4.630;2023-06-24T00:23:59;18.80;99.90
23873;DHT22;42884;50.718;4.630;2023-06-24T00:26:29;18.70;99.90
23873;DHT22;42884;50.718;4.630;2023-06-24T00:28:55;18.70;99.90
23873;DHT22;42884;50.718;4.630;2023-06-24T00:31:21;18.60;99.90
23873;DHT22;42884;50.718;4.630;2023-06-24T00:33:46;18.60;99.90
23873;DHT22;42884;50.718;4.630;2023-06-24T00:36:12;18.60;99.90
23873;DHT22;42884;50.718;4.630;2023-06-24T00:38:38;18.50;99.90
23873;DHT22;42884;50.718;4.630;2023-06-24T00:41:04;18.50;99.90
23873;DHT22;42884;50.718;4.630;2023-06-24T00:43:30;18.40;99.90
23873;DHT22;42884;50.718;4.630;2023-06-24T00:45:58;18.40;99.90
23873;DHT22;42884;50.718;4.630;2023-06-24T00:48:24;18.30;99.90
23873;DHT22;42884;50.718;4.630;2023-06-24T00:50:50;18.20;99.90
23873;DHT22;42884;50.718;4.630;2023-06-24T00:53:18;18.20;99.90
23873;DHT22;42884;50.718;4.630;2023-06-24T00:55:45;18.20;99.90
23873;DHT22;42884;50.718;4.630;2023-06-24T00:58:14;18.10;99.90
23873;DHT22;42884;50.718;4.630;2023-06-24T01:00:44;18.10;99.90
23873;DHT22;42884;50.718;4.630;2023-06-24T01:03:11;18.10;99.90
23873;DHT22;42884;50.718;4.630;2023-06-24T01:05:39;18.00;99.90
23873;DHT22;42884;50.718;4.630;2023-06-24T01:08:06;18.00;99.90
23873;DHT22;42884;50.718;4.630;2023-06-24T01:10:31;17.90;99.90
23873;DHT22;42884;50.718;4.630;2023-06-24T01:12:57;17.90;99.90
23873;DHT22;42884;50.718;4.630;2023-06-24T01:15:23;17.80;99.90
23873;DHT22;42884;50.718;4.630;2023-06-24T01:18:07;17.80;99.90
23873;DHT22;42884;50.718;4.630;2023-06-24T01:20:36;17.70;99.90
23873;DHT22;42884;50.718;4.630;2023-06-24T01:25:47;17.60;99.90
23873;DHT22;42884;50.718;4.630;2023-06-24T01:28:28;17.60;99.90
23873;DHT22;42884;50.718;4.630;2023-06-24T01:33:26;17.50;99.90
23873;DHT22;42884;50.718;4.630;2023-06-24T01:35:54;17.50;99.90
23873;DHT22;42884;50.718;4.630;2023-06-24T01:38:24;17.40;99.90
23873;DHT22;42884;50.718;4.630;2023-06-24T01:40:52;17.40;99.90
23873;DHT22;42884;50.718;4.630;2023-06-24T01:43:18;17.30;99.90
23873;DHT22;42884;50.718;4.630;2023-06-24T01:45:48;17.30;99.90
23873;DHT22;42884;50.718;4.630;2023-06-24T01:48:15;17.30;99.90
23873;DHT22;42884;50.718;4.630;2023-06-24T01:50:46;17.30;99.90
23873;DHT22;42884;50.718;4.630;2023-06-24T01:53:13;17.20;99.90
23873;DHT22;42884;50.718;4.630;2023-06-24T01:55:40;17.20;99.90
23873;DHT22;42884;50.718;4.630;2023-06-24T01:58:07;17.20;99.90
23873;DHT22;42884;50.718;4.630;2023-06-24T02:00:33;17.10;99.90
23873;DHT22;42884;50.718;4.630;2023-06-24T02:02:59;17.10;99.90
23873;DHT22;42884;50.718;4.630;2023-06-24T02:05:25;17.00;99.90
23873;DHT22;42884;50.718;4.630;2023-06-24T02:07:51;17.00;99.90
23873;DHT22;42884;50.718;4.630;2023-06-24T02:10:17;17.00;99.90
23873;DHT22;42884;50.718;4.630;2023-06-24T02:12:44;16.90;99.90
23873;DHT22;42884;50.718;4.630;2023-06-24T02:15:10;16.90;99.90
23873;DHT22;42884;50.718;4.630;2023-06-24T02:17:37;16.90;99.90
23873;DHT22;42884;50.718;4.630;2023-06-24T02:20:03;16.90;99.90
23873;DHT22;42884;50.718;4.630;2023-06-24T02:22:30;16.80;99.90
23873;DHT22;42884;50.718;4.630;2023-06-24T02:24:56;16.80;99.90
23873;DHT22;42884;50.718;4.630;2023-06-24T02:27:22;16.80;99.90
23873;DHT22;42884;50.718;4.630;2023-06-24T02:29:48;16.70;99.90
23873;DHT22;42884;50.718;4.630;2023-06-24T02:32:15;16.70;99.90
23873;DHT22;42884;50.718;4.630;2023-06-24T02:34:40;16.60;99.90
23873;DHT22;42884;50.718;4.630;2023-06-24T02:37:06;16.60;99.90
23873;DHT22;42884;50.718;4.630;2023-06-24T02:39:31;16.60;99.90
23873;DHT22;42884;50.718;4.630;2023-06-24T02:41:57;16.60;99.90
23873;DHT22;42884;50.718;4.630;2023-06-24T02:44:23;16.50;99.90
23873;DHT22;42884;50.718;4.630;2023-06-24T02:46:48;16.50;99.90
23873;DHT22;42884;50.718;4.630;2023-06-24T02:49:15;16.50;99.90
23873;DHT22;42884;50.718;4.630;2023-06-24T02:51:41;16.40;99.90
23873;DHT22;42884;50.718;4.630;2023-06-24T02:54:07;16.40;99.90
23873;DHT22;42884;50.718;4.630;2023-06-24T02:56:33;16.30;99.90
23873;DHT22;42884;50.718;4.630;2023-06-24T02:58:58;16.30;99.90
23873;DHT22;42884;50.718;4.630;2023-06-24T03:01:24;16.20;99.90
23873;DHT22;42884;50.718;4.630;2023-06-24T03:03:54;16.20;99.90
23873;DHT22;42884;50.718;4.630;2023-06-24T03:06:20;16.10;99.90
23873;DHT22;42884;50.718;4.630;2023-06-24T03:08:46;16.10;99.90
23873;DHT22;42884;50.718;4.630;2023-06-24T03:11:13;16.10;99.90
23873;DHT22;42884;50.718;4.630;2023-06-24T03:13:39;16.10;99.90
23873;DHT22;42884;50.718;4.630;2023-06-24T03:16:05;16.00;99.90
23873;DHT22;42884;50.718;4.630;2023-06-24T03:18:30;16.00;99.90
23873;DHT22;42884;50.718;4.630;2023-06-24T03:20:56;16.00;99.90
23873;DHT22;42884;50.718;4.630;2023-06-24T03:23:21;15.90;99.90
23873;DHT22;42884;50.718;4.630;2023-06-24T03:25:47;15.90;99.90
23873;DHT22;42884;50.718;4.630;2023-06-24T03:28:13;15.80;99.90
23873;DHT22;42884;50.718;4.630;2023-06-24T03:30:38;15.80;99.90
23873;DHT22;42884;50.718;4.630;2023-06-24T03:33:04;15.80;99.90
23873;DHT22;42884;50.718;4.630;2023-06-24T03:35:31;15.70;99.90
23873;DHT22;42884;50.718;4.630;2023-06-24T03:37:58;15.80;99.90
23873;DHT22;42884;50.718;4.630;2023-06-24T03:40:23;15.70;99.90
23873;DHT22;42884;50.718;4.630;2023-06-24T03:42:49;15.70;99.90
23873;DHT22;42884;50.718;4.630;2023-06-24T03:45:14;15.70;99.90
23873;DHT22;42884;50.718;4.630;2023-06-24T03:47:40;15.70;99.90
23873;DHT22;42884;50.718;4.630;2023-06-24T03:50:06;15.70;99.90
23873;DHT22;42884;50.718;4.630;2023-06-24T03:52:32;15.60;99.90
23873;DHT22;42884;50.718;4.630;2023-06-24T03:54:57;15.60;99.90
23873;DHT22;42884;50.718;4.630;2023-06-24T03:57:23;15.50;99.90
23873;DHT22;42884;50.718;4.630;2023-06-24T03:59:48;15.50;99.90
23873;DHT22;42884;50.718;4.630;2023-06-24T04:02:14;15.50;99.90
23873;DHT22;42884;50.718;4.630;2023-06-24T04:04:40;15.50;99.90
23873;DHT22;42884;50.718;4.630;2023-06-24T04:07:06;15.50;99.90
23873;DHT22;42884;50.718;4.630;2023-06-24T04:09:35;15.50;99.90
23873;DHT22;42884;50.718;4.630;2023-06-24T04:12:01;15.50;99.90
23873;DHT22;42884;50.718;4.630;2023-06-24T04:14:26;15.50;99.90
23873;DHT22;42884;50.718;4.630;2023-06-24T04:16:52;15.50;99.90
23873;DHT22;42884;50.718;4.630;2023-06-24T04:19:17;15.50;99.90
23873;DHT22;42884;50.718;4.630;2023-06-24T04:21:43;15.50;99.90
23873;DHT22;42884;50.718;4.630;2023-06-24T04:24:08;15.50;99.90
23873;DHT22;42884;50.718;4.630;2023-06-24T04:26:34;15.50;99.90
23873;DHT22;42884;50.718;4.630;2023-06-24T04:28:59;15.40;99.90
23873;DHT22;42884;50.718;4.630;2023-06-24T04:31:25;15.50;99.90
23873;DHT22;42884;50.718;4.630;2023-06-24T04:33:51;15.50;99.90
23873;DHT22;42884;50.718;4.630;2023-06-24T04:36:17;15.50;99.90
23873;DHT22;42884;50.718;4.630;2023-06-24T04:38:42;15.60;99.90
23873;DHT22;42884;50.718;4.630;2023-06-24T04:41:08;15.50;99.90
23873;DHT22;42884;50.718;4.630;2023-06-24T04:43:34;15.60;99.90
23873;DHT22;42884;50.718;4.630;2023-06-24T04:46:01;15.60;99.90
23873;DHT22;42884;50.718;4.630;2023-06-24T04:48:26;15.70;99.90
23873;DHT22;42884;50.718;4.630;2023-06-24T04:50:52;15.80;99.90
23873;DHT22;42884;50.718;4.630;2023-06-24T04:53:20;15.80;99.90
23873;DHT22;42884;50.718;4.630;2023-06-24T04:55:45;15.90;99.90
23873;DHT22;42884;50.718;4.630;2023-06-24T04:58:11;16.00;99.90
23873;DHT22;42884;50.718;4.630;2023-06-24T05:00:37;16.10;99.90
23873;DHT22;42884;50.718;4.630;2023-06-24T05:03:02;16.10;99.90
23873;DHT22;42884;50.718;4.630;2023-06-24T05:05:28;16.30;99.90
23873;DHT22;42884;50.718;4.630;2023-06-24T05:07:53;16.30;99.90
23873;DHT22;42884;50.718;4.630;2023-06-24T05:10:19;16.40;99.90
23873;DHT22;42884;50.718;4.630;2023-06-24T05:12:44;16.40;99.90
23873;DHT22;42884;50.718;4.630;2023-06-24T05:15:10;16.60;99.90
23873;DHT22;42884;50.718;4.630;2023-06-24T05:17:36;16.70;99.90
23873;DHT22;42884;50.718;4.630;2023-06-24T05:20:02;16.80;99.90
23873;DHT22;42884;50.718;4.630;2023-06-24T05:22:28;16.80;99.90
23873;DHT22;42884;50.718;4.630;2023-06-24T05:24:54;16.90;99.90
23873;DHT22;42884;50.718;4.630;2023-06-24T05:27:20;17.00;99.90
23873;DHT22;42884;50.718;4.630;2023-06-24T05:29:45;17.10;99.90
23873;DHT22;42884;50.718;4.630;2023-06-24T05:32:11;17.20;99.90
23873;DHT22;42884;50.718;4.630;2023-06-24T05:34:37;17.30;99.90
23873;DHT22;42884;50.718;4.630;2023-06-24T05:37:03;17.40;99.90
23873;DHT22;42884;50.718;4.630;2023-06-24T05:39:29;17.40;99.90
23873;DHT22;42884;50.718;4.630;2023-06-24T05:41:55;17.50;99.90
23873;DHT22;42884;50.718;4.630;2023-06-24T05:44:20;17.60;99.90
23873;DHT22;42884;50.718;4.630;2023-06-24T05:46:46;17.70;99.90
23873;DHT22;42884;50.718;4.630;2023-06-24T05:49:12;17.80;99.90
23873;DHT22;42884;50.718;4.630;2023-06-24T05:51:37;17.90;99.90
23873;DHT22;42884;50.718;4.630;2023-06-24T05:54:03;18.00;99.90
23873;DHT22;42884;50.718;4.630;2023-06-24T05:56:29;18.10;99.90
23873;DHT22;42884;50.718;4.630;2023-06-24T05:58:55;18.20;99.90
23873;DHT22;42884;50.718;4.630;2023-06-24T06:01:20;18.30;99.90
23873;DHT22;42884;50.718;4.630;2023-06-24T06:03:46;18.40;99.90
23873;DHT22;42884;50.718;4.630;2023-06-24T06:06:11;18.50;99.90
23873;DHT22;42884;50.718;4.630;2023-06-24T06:08:37;18.60;99.90
23873;DHT22;42884;50.718;4.630;2023-06-24T06:11:03;18.70;99.90
23873;DHT22;42884;50.718;4.630;2023-06-24T06:13:29;18.70;99.90
23873;DHT22;42884;50.718;4.630;2023-06-24T06:15:55;18.80;99.90
23873;DHT22;42884;50.718;4.630;2023-06-24T06:18:20;18.90;99.90
23873;DHT22;42884;50.718;4.630;2023-06-24T06:20:46;18.90;99.90
23873;DHT22;42884;50.718;4.630;2023-06-24T06:23:11;19.10;99.90
23873;DHT22;42884;50.718;4.630;2023-06-24T06:25:37;19.10;99.90
23873;DHT22;42884;50.718;4.630;2023-06-24T06:28:03;19.20;99.90
23873;DHT22;42884;50.718;4.630;2023-06-24T06:30:29;19.30;99.90
23873;DHT22;42884;50.718;4.630;2023-06-24T06:32:54;19.30;99.90
23873;DHT22;42884;50.718;4.630;2023-06-24T06:35:20;19.40;99.90
23873;DHT22;42884;50.718;4.630;2023-06-24T06:37:46;19.50;99.90
23873;DHT22;42884;50.718;4.630;2023-06-24T06:40:17;19.70;99.90
23873;DHT22;42884;50.718;4.630;2023-06-24T06:42:43;19.80;99.90
23873;DHT22;42884;50.718;4.630;2023-06-24T06:45:09;19.80;99.90
23873;DHT22;42884;50.718;4.630;2023-06-24T06:47:34;19.80;99.90
23873;DHT22;42884;50.718;4.630;2023-06-24T06:50:00;19.90;99.90
23873;DHT22;42884;50.718;4.630;2023-06-24T06:52:27;19.80;99.90
23873;DHT22;42884;50.718;4.630;2023-06-24T06:54:54;20.00;99.90
23873;DHT22;42884;50.718;4.630;2023-06-24T06:57:19;20.20;99.90
23873;DHT22;42884;50.718;4.630;2023-06-24T06:59:45;20.20;99.90
23873;DHT22;42884;50.718;4.630;2023-06-24T07:02:10;20.30;99.90
23873;DHT22;42884;50.718;4.630;2023-06-24T07:04:36;20.20;99.90
23873;DHT22;42884;50.718;4.630;2023-06-24T07:07:02;20.30;99.90
23873;DHT22;42884;50.718;4.630;2023-06-24T07:09:28;20.50;99.90
23873;DHT22;42884;50.718;4.630;2023-06-24T07:11:53;20.70;99.90
23873;DHT22;42884;50.718;4.630;2023-06-24T07:14:19;20.80;99.90
23873;DHT22;42884;50.718;4.630;2023-06-24T07:16:44;20.90;99.90
23873;DHT22;42884;50.718;4.630;2023-06-24T07:19:10;21.10;99.90
23873;DHT22;42884;50.718;4.630;2023-06-24T07:21:35;21.20;99.90
23873;DHT22;42884;50.718;4.630;2023-06-24T07:24:01;21.20;99.90
23873;DHT22;42884;50.718;4.630;2023-06-24T07:26:27;21.40;99.90
23873;DHT22;42884;50.718;4.630;2023-06-24T07:28:56;21.40;99.90
23873;DHT22;42884;50.718;4.630;2023-06-24T07:31:21;21.50;99.90
23873;DHT22;42884;50.718;4.630;2023-06-24T07:33:47;21.70;99.90
23873;DHT22;42884;50.718;4.630;2023-06-24T07:36:13;21.80;99.90
23873;DHT22;42884;50.718;4.630;2023-06-24T07:38:39;21.90;99.90
23873;DHT22;42884;50.718;4.630;2023-06-24T07:41:04;22.00;99.90
23873;DHT22;42884;50.718;4.630;2023-06-24T07:43:30;22.10;99.90
23873;DHT22;42884;50.718;4.630;2023-06-24T07:45:55;22.10;99.90
23873;DHT22;42884;50.718;4.630;2023-06-24T07:48:21;22.20;99.90
23873;DHT22;42884;50.718;4.630;2023-06-24T07:50:47;22.30;99.90
23873;DHT22;42884;50.718;4.630;2023-06-24T07:53:12;22.30;99.90
23873;DHT22;42884;50.718;4.630;2023-06-24T07:55:38;22.40;99.90
23873;DHT22;42884;50.718;4.630;2023-06-24T07:58:04;22.60;99.90
23873;DHT22;42884;50.718;4.630;2023-06-24T08:00:30;22.70;99.90
23873;DHT22;42884;50.718;4.630;2023-06-24T08:02:59;22.80;99.90
23873;DHT22;42884;50.718;4.630;2023-06-24T08:05:25;23.00;99.90
23873;DHT22;42884;50.718;4.630;2023-06-24T08:07:51;23.20;99.90
23873;DHT22;42884;50.718;4.630;2023-06-24T08:10:17;23.30;99.90
23873;DHT22;42884;50.718;4.630;2023-06-24T08:12:42;23.40;99.90
23873;DHT22;42884;50.718;4.630;2023-06-24T08:15:08;23.40;99.90
23873;DHT22;42884;50.718;4.630;2023-06-24T08:17:34;23.50;99.90
23873;DHT22;42884;50.718;4.630;2023-06-24T08:20:00;23.70;99.90
23873;DHT22;42884;50.718;4.630;2023-06-24T08:22:26;24.00;99.90
23873;DHT22;42884;50.718;4.630;2023-06-24T08:24:51;24.20;99.90
23873;DHT22;42884;50.718;4.630;2023-06-24T08:27:17;24.40;99.90
23873;DHT22;42884;50.718;4.630;2023-06-24T08:29:42;24.50;99.90
23873;DHT22;42884;50.718;4.630;2023-06-24T08:32:08;24.60;99.90
23873;DHT22;42884;50.718;4.630;2023-06-24T08:34:34;24.80;99.90
23873;DHT22;42884;50.718;4.630;2023-06-24T08:36:59;25.00;99.90
23873;DHT22;42884;50.718;4.630;2023-06-24T08:39:25;25.30;99.90
23873;DHT22;42884;50.718;4.630;2023-06-24T08:41:50;25.80;99.90
23873;DHT22;42884;50.718;4.630;2023-06-24T08:44:16;26.00;99.90
23873;DHT22;42884;50.718;4.630;2023-06-24T08:46:41;26.20;99.90
23873;DHT22;42884;50.718;4.630;2023-06-24T08:49:24;26.10;99.90
23873;DHT22;42884;50.718;4.630;2023-06-24T08:51:54;26.20;99.90
23873;DHT22;42884;50.718;4.630;2023-06-24T08:54:20;26.60;99.90
23873;DHT22;42884;50.718;4.630;2023-06-24T08:56:46;26.20;99.90
23873;DHT22;42884;50.718;4.630;2023-06-24T08:59:12;26.50;99.90
23873;DHT22;42884;50.718;4.630;2023-06-24T09:01:37;27.00;99.90
23873;DHT22;42884;50.718;4.630;2023-06-24T09:04:04;27.30;98.30
23873;DHT22;42884;50.718;4.630;2023-06-24T09:06:32;27.60;99.90
23873;DHT22;42884;50.718;4.630;2023-06-24T09:08:58;27.70;99.90
23873;DHT22;42884;50.718;4.630;2023-06-24T09:11:26;27.90;99.90
23873;DHT22;42884;50.718;4.630;2023-06-24T09:13:55;28.20;99.90
23873;DHT22;42884;50.718;4.630;2023-06-24T09:16:22;28.50;96.30
23873;DHT22;42884;50.718;4.630;2023-06-24T09:18:51;28.80;99.80
23873;DHT22;42884;50.718;4.630;2023-06-24T09:21:23;28.90;99.40
23873;DHT22;42884;50.718;4.630;2023-06-24T09:23:53;29.10;99.00
23873;DHT22;42884;50.718;4.630;2023-06-24T09:26:20;28.90;97.40
23873;DHT22;42884;50.718;4.630;2023-06-24T09:28:48;29.00;98.10
23873;DHT22;42884;50.718;4.630;2023-06-24T09:31:14;29.30;96.00
23873;DHT22;42884;50.718;4.630;2023-06-24T09:33:40;29.70;97.00
23873;DHT22;42884;50.718;4.630;2023-06-24T09:36:06;30.30;97.50
23873;DHT22;42884;50.718;4.630;2023-06-24T09:38:35;30.30;96.40
23873;DHT22;42884;50.718;4.630;2023-06-24T09:41:02;30.60;95.20
23873;DHT22;42884;50.718;4.630;2023-06-24T09:43:28;30.70;93.30
23873;DHT22;42884;50.718;4.630;2023-06-24T09:45:54;30.30;92.60
23873;DHT22;42884;50.718;4.630;2023-06-24T09:48:20;30.80;96.00
23873;DHT22;42884;50.718;4.630;2023-06-24T09:50:46;30.80;92.50
23873;DHT22;42884;50.718;4.630;2023-06-24T09:53:12;30.90;91.90
23873;DHT22;42884;50.718;4.630;2023-06-24T09:55:37;31.00;92.30
23873;DHT22;42884;50.718;4.630;2023-06-24T09:58:08;31.10;90.00
23873;DHT22;42884;50.718;4.630;2023-06-24T10:00:36;31.40;86.70
23873;DHT22;42884;50.718;4.630;2023-06-24T10:03:01;31.50;87.30
23873;DHT22;42884;50.718;4.630;2023-06-24T10:05:27;31.40;84.30
23873;DHT22;42884;50.718;4.630;2023-06-24T10:07:53;30.90;85.80
23873;DHT22;42884;50.718;4.630;2023-06-24T10:10:19;30.70;90.10
23873;DHT22;42884;50.718;4.630;2023-06-24T10:12:44;31.10;86.90
23873;DHT22;42884;50.718;4.630;2023-06-24T10:15:10;31.30;84.20
23873;DHT22;42884;50.718;4.630;2023-06-24T10:17:36;31.60;86.60
23873;DHT22;42884;50.718;4.630;2023-06-24T10:20:05;31.70;87.40
23873;DHT22;42884;50.718;4.630;2023-06-24T10:22:34;31.90;88.50
23873;DHT22;42884;50.718;4.630;2023-06-24T10:25:02;31.90;85.60
23873;DHT22;42884;50.718;4.630;2023-06-24T10:27:28;32.00;84.10
23873;DHT22;42884;50.718;4.630;2023-06-24T10:30:01;32.10;84.30
23873;DHT22;42884;50.718;4.630;2023-06-24T10:32:28;32.20;83.20
23873;DHT22;42884;50.718;4.630;2023-06-24T10:35:04;32.30;86.40
23873;DHT22;42884;50.718;4.630;2023-06-24T10:37:31;32.20;86.40
23873;DHT22;42884;50.718;4.630;2023-06-24T10:39:57;32.10;86.60
23873;DHT22;42884;50.718;4.630;2023-06-24T10:44:53;32.30;81.50
23873;DHT22;42884;50.718;4.630;2023-06-24T10:47:19;32.30;85.10
23873;DHT22;42884;50.718;4.630;2023-06-24T10:49:45;32.60;79.60
23873;DHT22;42884;50.718;4.630;2023-06-24T10:52:10;32.20;82.70
23873;DHT22;42884;50.718;4.630;2023-06-24T10:54:37;32.40;82.60
23873;DHT22;42884;50.718;4.630;2023-06-24T10:57:03;32.70;86.90
23873;DHT22;42884;50.718;4.630;2023-06-24T10:59:34;33.20;85.40
23873;DHT22;42884;50.718;4.630;2023-06-24T11:01:59;33.50;79.90
23873;DHT22;42884;50.718;4.630;2023-06-24T11:04:25;33.20;80.50
23873;DHT22;42884;50.718;4.630;2023-06-24T11:07:00;33.30;84.80
23873;DHT22;42884;50.718;4.630;2023-06-24T11:09:26;33.40;84.10
23873;DHT22;42884;50.718;4.630;2023-06-24T11:11:52;33.90;84.00
23873;DHT22;42884;50.718;4.630;2023-06-24T11:14:19;34.10;84.30
23873;DHT22;42884;50.718;4.630;2023-06-24T11:16:45;34.40;85.20
23873;DHT22;42884;50.718;4.630;2023-06-24T11:19:10;34.20;77.30
23873;DHT22;42884;50.718;4.630;2023-06-24T11:21:36;33.30;75.90
23873;DHT22;42884;50.718;4.630;2023-06-24T11:24:02;33.50;78.70
23873;DHT22;42884;50.718;4.630;2023-06-24T11:26:27;33.60;83.80
23873;DHT22;42884;50.718;4.630;2023-06-24T11:28:53;33.50;78.60
23873;DHT22;42884;50.718;4.630;2023-06-24T11:31:19;33.10;77.70
23873;DHT22;42884;50.718;4.630;2023-06-24T11:33:48;33.00;80.30
23873;DHT22;42884;50.718;4.630;2023-06-24T11:36:16;33.40;85.60
23873;DHT22;42884;50.718;4.630;2023-06-24T11:38:42;33.80;78.80
23873;DHT22;42884;50.718;4.630;2023-06-24T11:41:07;33.70;85.00
23873;DHT22;42884;50.718;4.630;2023-06-24T11:43:33;33.80;84.30
23873;DHT22;42884;50.718;4.630;2023-06-24T11:45:58;33.90;86.40
23873;DHT22;42884;50.718;4.630;2023-06-24T11:48:28;33.80;86.40
23873;DHT22;42884;50.718;4.630;2023-06-24T11:50:54;33.70;83.50
23873;DHT22;42884;50.718;4.630;2023-06-24T11:53:29;33.90;83.70
23873;DHT22;42884;50.718;4.630;2023-06-24T11:55:55;33.80;78.70
23873;DHT22;42884;50.718;4.630;2023-06-24T11:58:21;33.80;73.80
23873;DHT22;42884;50.718;4.630;2023-06-24T12:00:48;33.40;72.90
23873;DHT22;42884;50.718;4.630;2023-06-24T12:03:15;33.30;72.20
23873;DHT22;42884;50.718;4.630;2023-06-24T12:05:41;33.30;78.00
23873;DHT22;42884;50.718;4.630;2023-06-24T12:08:13;33.20;77.80
23873;DHT22;42884;50.718;4.630;2023-06-24T12:10:40;33.60;77.80
23873;DHT22;42884;50.718;4.630;2023-06-24T12:13:06;33.80;78.90
23873;DHT22;42884;50.718;4.630;2023-06-24T12:15:32;34.10;79.20
23873;DHT22;42884;50.718;4.630;2023-06-24T12:17:57;33.90;77.70
23873;DHT22;42884;50.718;4.630;2023-06-24T12:20:24;33.80;78.00
23873;DHT22;42884;50.718;4.630;2023-06-24T12:22:50;33.90;78.70
23873;DHT22;42884;50.718;4.630;2023-06-24T12:25:16;34.20;82.40
23873;DHT22;42884;50.718;4.630;2023-06-24T12:27:42;34.20;81.00
23873;DHT22;42884;50.718;4.630;2023-06-24T12:30:09;33.90;78.90
23873;DHT22;42884;50.718;4.630;2023-06-24T12:32:35;33.40;82.40
23873;DHT22;42884;50.718;4.630;2023-06-24T12:35:01;33.80;83.00
23873;DHT22;42884;50.718;4.630;2023-06-24T12:37:31;34.10;84.70
23873;DHT22;42884;50.718;4.630;2023-06-24T12:39:58;34.50;82.40
23873;DHT22;42884;50.718;4.630;2023-06-24T12:42:24;34.70;80.30
23873;DHT22;42884;50.718;4.630;2023-06-24T12:44:49;34.80;79.90
23873;DHT22;42884;50.718;4.630;2023-06-24T12:47:15;34.70;82.70
23873;DHT22;42884;50.718;4.630;2023-06-24T12:49:41;34.40;76.80
23873;DHT22;42884;50.718;4.630;2023-06-24T12:52:06;34.60;78.80
23873;DHT22;42884;50.718;4.630;2023-06-24T12:54:32;34.50;78.40
23873;DHT22;42884;50.718;4.630;2023-06-24T12:56:57;34.10;76.90
23873;DHT22;42884;50.718;4.630;2023-06-24T12:59:24;34.30;78.10
23873;DHT22;42884;50.718;4.630;2023-06-24T13:01:51;34.40;79.70
23873;DHT22;42884;50.718;4.630;2023-06-24T13:04:16;34.40;76.10
23873;DHT22;42884;50.718;4.630;2023-06-24T13:06:45;34.10;80.10
23873;DHT22;42884;50.718;4.630;2023-06-24T13:09:11;34.40;81.70
23873;DHT22;42884;50.718;4.630;2023-06-24T13:11:36;34.80;80.80
23873;DHT22;42884;50.718;4.630;2023-06-24T13:14:03;35.00;79.70
23873;DHT22;42884;50.718;4.630;2023-06-24T13:16:28;35.20;76.30
23873;DHT22;42884;50.718;4.630;2023-06-24T13:18:54;35.10;75.30
23873;DHT22;42884;50.718;4.630;2023-06-24T13:21:19;35.00;75.80
23873;DHT22;42884;50.718;4.630;2023-06-24T13:23:45;35.20;75.30
23873;DHT22;42884;50.718;4.630;2023-06-24T13:26:11;34.60;77.80
23873;DHT22;42884;50.718;4.630;2023-06-24T13:28:37;34.70;79.80
23873;DHT22;42884;50.718;4.630;2023-06-24T13:31:03;34.60;79.10
23873;DHT22;42884;50.718;4.630;2023-06-24T13:33:28;34.50;71.70
23873;DHT22;42884;50.718;4.630;2023-06-24T13:35:54;34.50;70.30
23873;DHT22;42884;50.718;4.630;2023-06-24T13:38:20;34.50;77.70
23873;DHT22;42884;50.718;4.630;2023-06-24T13:40:46;35.00;75.30
23873;DHT22;42884;50.718;4.630;2023-06-24T13:43:11;34.90;73.20
23873;DHT22;42884;50.718;4.630;2023-06-24T13:45:37;34.50;69.00
23873;DHT22;42884;50.718;4.630;2023-06-24T13:48:02;34.60;75.00
23873;DHT22;42884;50.718;4.630;2023-06-24T13:50:28;35.40;75.40
23873;DHT22;42884;50.718;4.630;2023-06-24T13:52:54;35.30;75.70
23873;DHT22;42884;50.718;4.630;2023-06-24T13:55:20;35.40;76.90
23873;DHT22;42884;50.718;4.630;2023-06-24T13:57:46;35.80;76.60
23873;DHT22;42884;50.718;4.630;2023-06-24T14:00:11;35.80;68.90
23873;DHT22;42884;50.718;4.630;2023-06-24T14:02:37;35.60;69.20
23873;DHT22;42884;50.718;4.630;2023-06-24T14:05:03;35.60;69.20
23873;DHT22;42884;50.718;4.630;2023-06-24T14:07:29;35.50;75.70
23873;DHT22;42884;50.718;4.630;2023-06-24T14:09:54;35.40;78.40
23873;DHT22;42884;50.718;4.630;2023-06-24T14:12:20;35.50;72.60
23873;DHT22;42884;50.718;4.630;2023-06-24T14:14:46;35.30;66.50
23873;DHT22;42884;50.718;4.630;2023-06-24T14:17:11;35.30;72.70
23873;DHT22;42884;50.718;4.630;2023-06-24T14:19:40;35.70;73.40
23873;DHT22;42884;50.718;4.630;2023-06-24T14:22:06;35.50;71.30
23873;DHT22;42884;50.718;4.630;2023-06-24T14:24:32;35.30;74.40
23873;DHT22;42884;50.718;4.630;2023-06-24T14:26:58;35.60;71.40
23873;DHT22;42884;50.718;4.630;2023-06-24T14:29:24;35.60;71.90
23873;DHT22;42884;50.718;4.630;2023-06-24T14:31:51;35.20;65.60
23873;DHT22;42884;50.718;4.630;2023-06-24T14:34:16;34.50;68.90
23873;DHT22;42884;50.718;4.630;2023-06-24T14:36:42;34.50;74.60
23873;DHT22;42884;50.718;4.630;2023-06-24T14:39:08;34.90;73.10
23873;DHT22;42884;50.718;4.630;2023-06-24T14:41:33;35.20;74.60
23873;DHT22;42884;50.718;4.630;2023-06-24T14:43:59;35.40;69.10
23873;DHT22;42884;50.718;4.630;2023-06-24T14:46:24;35.50;75.70
23873;DHT22;42884;50.718;4.630;2023-06-24T14:48:50;35.80;70.60
23873;DHT22;42884;50.718;4.630;2023-06-24T14:51:15;35.90;72.80
23873;DHT22;42884;50.718;4.630;2023-06-24T14:53:41;35.80;69.90
23873;DHT22;42884;50.718;4.630;2023-06-24T14:56:07;36.00;72.40
23873;DHT22;42884;50.718;4.630;2023-06-24T14:58:32;35.80;74.10
23873;DHT22;42884;50.718;4.630;2023-06-24T15:00:58;35.90;74.80
23873;DHT22;42884;50.718;4.630;2023-06-24T15:03:23;35.90;73.10
23873;DHT22;42884;50.718;4.630;2023-06-24T15:05:49;36.00;71.80
23873;DHT22;42884;50.718;4.630;2023-06-24T15:08:15;36.10;70.80
23873;DHT22;42884;50.718;4.630;2023-06-24T15:10:40;36.30;68.10
23873;DHT22;42884;50.718;4.630;2023-06-24T15:13:06;35.90;67.90
23873;DHT22;42884;50.718;4.630;2023-06-24T15:15:31;36.10;72.60
23873;DHT22;42884;50.718;4.630;2023-06-24T15:17:57;36.40;70.20
23873;DHT22;42884;50.718;4.630;2023-06-24T15:20:23;36.40;72.70
23873;DHT22;42884;50.718;4.630;2023-06-24T15:22:48;36.20;67.80
23873;DHT22;42884;50.718;4.630;2023-06-24T15:25:14;35.40;67.50
23873;DHT22;42884;50.718;4.630;2023-06-24T15:27:39;35.80;68.30
23873;DHT22;42884;50.718;4.630;2023-06-24T15:30:05;36.00;68.00
23873;DHT22;42884;50.718;4.630;2023-06-24T15:32:31;36.20;70.90